This is the latest recevied weather packets stored in our database for station/object OK1FCB-1. If no packets are shown the sender has not sent any weather packets the latest 10 day(s).
| Time | Temp. | Humidity | Pressure | Rain* | Wind** | Luminosity | Snow |
|---|---|---|---|---|---|---|---|
| 1777835538 | 16.11° C | 39% | 1017.8 hPa | - | - | - | - |
| 1777835533 | 16.11° C | 39% | 1017.8 hPa | - | - | - | - |
| 1777834642 | 17.22° C | 37% | 1017.7 hPa | - | - | - | - |
| 1777834637 | 17.22° C | 37% | 1017.7 hPa | - | - | - | - |
| 1777832849 | 18.89° C | 34% | 1017.5 hPa | - | - | - | - |
| 1777832843 | 18.89° C | 34% | 1017.5 hPa | - | - | - | - |
| 1777831056 | 21.67° C | 31% | 1017.2 hPa | - | - | - | - |
| 1777831050 | 21.67° C | 31% | 1017.2 hPa | - | - | - | - |
| 1777828379 | 30° C | 24% | 1017.1 hPa | - | - | - | - |
| 1777828373 | 30° C | 24% | 1017.1 hPa | - | - | - | - |
| 1777827481 | 30° C | 24% | 1017.1 hPa | - | - | - | - |
| 1777827475 | 30° C | 24% | 1017.1 hPa | - | - | - | - |
| 1777826576 | 30° C | 23% | 1017.1 hPa | - | - | - | - |
| 1777824791 | 32.78° C | 21% | 1017.2 hPa | - | - | - | - |
| 1777824786 | 32.78° C | 21% | 1017.2 hPa | - | - | - | - |
| 1777823895 | 33.89° C | 21% | 1017.1 hPa | - | - | - | - |
| 1777823889 | 33.89° C | 21% | 1017.1 hPa | - | - | - | - |
| 1777822096 | 35.56° C | 20% | 1017.2 hPa | - | - | - | - |
| 1777820308 | 36.67° C | 19% | 1017.5 hPa | - | - | - | - |
| 1777820302 | 36.67° C | 19% | 1017.5 hPa | - | - | - | - |
| 1777818505 | 36.67° C | 20% | 1017.9 hPa | - | - | - | - |
| 1777814911 | 35.56° C | 22% | 1018.5 hPa | - | - | - | - |
| 1777814017 | 35° C | 22% | 1018.9 hPa | - | - | - | - |
| 1777814012 | 35° C | 22% | 1018.9 hPa | - | - | - | - |
| 1777811315 | 33.89° C | 21% | 1019.4 hPa | - | - | - | - |
* Rain since midnight (hover to see other rain measurements)
** Current wind speed in m/s (hover to see current wind gust speed)